<?xml version="1.0" encoding="UTF-8" standalone="no" ?>
<gpx xmlns="http://www.topografix.com/GPX/1/1" xmlns:xsi="http://www.w3.org/2001/XMLSchema-instance" xsi:schemaLocation="http://www.topografix.com/GPX/1/1 http://www.topografix.com/GPX/1/1/gpx.xsd" version="1.1" creator="VisuGPX - https://www.visugpx.com">
  <metadata>
    <name>Brèche du Turc-Gigondas</name>
    <desc><![CDATA[Niveau facile]]></desc>
  </metadata>
  <trk>
    <name><![CDATA[Gigondas-Brèche du Turc - F]]></name>
    <extensions>
      <line xmlns="http://www.topografix.com/GPX/gpx_style/0/2">
        <color>0000FF</color>
        <width>4</width>
      </line>
    </extensions>
    <trkseg>
      <trkpt lat="44.16399" lon="5.00554">
        <ele>266</ele>
        <time>2020-06-01T06:58:55.000Z</time>
      </trkpt>
      <trkpt lat="44.16405" lon="5.00564">
        <ele>264</ele>
        <time>2020-06-01T06:58:56.856Z</time>
      </trkpt>
      <trkpt lat="44.16418" lon="5.0055">
        <ele>262</ele>
        <time>2020-06-01T06:59:00.116Z</time>
      </trkpt>
      <trkpt lat="44.16429" lon="5.00566">
        <ele>261</ele>
        <time>2020-06-01T06:59:03.091Z</time>
      </trkpt>
      <trkpt lat="44.16449" lon="5.00627">
        <ele>264</ele>
        <time>2020-06-01T07:00:20.628Z</time>
      </trkpt>
      <trkpt lat="44.16464" lon="5.00655">
        <ele>268</ele>
        <time>2020-06-01T07:01:42.534Z</time>
      </trkpt>
      <trkpt lat="44.16467" lon="5.00693">
        <ele>272</ele>
        <time>2020-06-01T07:03:12.134Z</time>
      </trkpt>
      <trkpt lat="44.16479" lon="5.00717">
        <ele>275</ele>
        <time>2020-06-01T07:04:20.700Z</time>
      </trkpt>
      <trkpt lat="44.16525" lon="5.00779">
        <ele>280</ele>
        <time>2020-06-01T07:06:16.897Z</time>
      </trkpt>
      <trkpt lat="44.16587" lon="5.009">
        <ele>279</ele>
        <time>2020-06-01T07:06:51.173Z</time>
      </trkpt>
      <trkpt lat="44.16598" lon="5.0094">
        <ele>279</ele>
        <time>2020-06-01T07:07:17.203Z</time>
      </trkpt>
      <trkpt lat="44.16648" lon="5.01031">
        <ele>279</ele>
        <time>2020-06-01T07:08:26.854Z</time>
      </trkpt>
      <trkpt lat="44.16666" lon="5.01105">
        <ele>279</ele>
        <time>2020-06-01T07:09:14.332Z</time>
      </trkpt>
      <trkpt lat="44.1665" lon="5.01172">
        <ele>279</ele>
        <time>2020-06-01T07:09:57.239Z</time>
      </trkpt>
      <trkpt lat="44.16638" lon="5.01188">
        <ele>279</ele>
        <time>2020-06-01T07:10:11.305Z</time>
      </trkpt>
      <trkpt lat="44.16611" lon="5.01274">
        <ele>277</ele>
        <time>2020-06-01T07:10:28.312Z</time>
      </trkpt>
      <trkpt lat="44.16594" lon="5.0137">
        <ele>278</ele>
        <time>2020-06-01T07:11:37.305Z</time>
      </trkpt>
      <trkpt lat="44.16599" lon="5.01384">
        <ele>278</ele>
        <time>2020-06-01T07:11:46.808Z</time>
      </trkpt>
      <trkpt lat="44.16594" lon="5.0137">
        <ele>279</ele>
        <time>2020-06-01T07:12:09.154Z</time>
      </trkpt>
      <trkpt lat="44.16527" lon="5.01437">
        <ele>284</ele>
        <time>2020-06-01T07:14:20.434Z</time>
      </trkpt>
      <trkpt lat="44.1649" lon="5.01493">
        <ele>289</ele>
        <time>2020-06-01T07:16:11.587Z</time>
      </trkpt>
      <trkpt lat="44.16405" lon="5.01525">
        <ele>295</ele>
        <time>2020-06-01T07:18:39.593Z</time>
      </trkpt>
      <trkpt lat="44.1626" lon="5.01588">
        <ele>305</ele>
        <time>2020-06-01T07:22:50.604Z</time>
      </trkpt>
      <trkpt lat="44.16201" lon="5.01589">
        <ele>308</ele>
        <time>2020-06-01T07:24:18.484Z</time>
      </trkpt>
      <trkpt lat="44.1605" lon="5.01646">
        <ele>323</ele>
        <time>2020-06-01T07:29:49.799Z</time>
      </trkpt>
      <trkpt lat="44.15952" lon="5.0173">
        <ele>332</ele>
        <time>2020-06-01T07:33:18.870Z</time>
      </trkpt>
      <trkpt lat="44.15984" lon="5.01745">
        <ele>333</ele>
        <time>2020-06-01T07:33:58.115Z</time>
      </trkpt>
      <trkpt lat="44.15993" lon="5.01756">
        <ele>334</ele>
        <time>2020-06-01T07:34:20.839Z</time>
      </trkpt>
      <trkpt lat="44.15999" lon="5.01805">
        <ele>336</ele>
        <time>2020-06-01T07:35:15.851Z</time>
      </trkpt>
      <trkpt lat="44.15991" lon="5.01836">
        <ele>338</ele>
        <time>2020-06-01T07:36:01.128Z</time>
      </trkpt>
      <trkpt lat="44.15981" lon="5.01855">
        <ele>339</ele>
        <time>2020-06-01T07:36:27.765Z</time>
      </trkpt>
      <trkpt lat="44.15991" lon="5.01856">
        <ele>340</ele>
        <time>2020-06-01T07:36:49.794Z</time>
      </trkpt>
      <trkpt lat="44.15998" lon="5.01868">
        <ele>342</ele>
        <time>2020-06-01T07:37:26.046Z</time>
      </trkpt>
      <trkpt lat="44.16004" lon="5.01864">
        <ele>342</ele>
        <time>2020-06-01T07:37:31.680Z</time>
      </trkpt>
      <trkpt lat="44.16016" lon="5.01869">
        <ele>344</ele>
        <time>2020-06-01T07:38:12.602Z</time>
      </trkpt>
      <trkpt lat="44.1602" lon="5.01904">
        <ele>348</ele>
        <time>2020-06-01T07:39:35.673Z</time>
      </trkpt>
      <trkpt lat="44.1601" lon="5.01935">
        <ele>351</ele>
        <time>2020-06-01T07:40:44.930Z</time>
      </trkpt>
      <trkpt lat="44.15992" lon="5.0197">
        <ele>357</ele>
        <time>2020-06-01T07:42:25.870Z</time>
      </trkpt>
      <trkpt lat="44.15971" lon="5.02068">
        <ele>371</ele>
        <time>2020-06-01T07:46:25.604Z</time>
      </trkpt>
      <trkpt lat="44.15951" lon="5.0212">
        <ele>379</ele>
        <time>2020-06-01T07:48:43.901Z</time>
      </trkpt>
      <trkpt lat="44.15929" lon="5.02223">
        <ele>394</ele>
        <time>2020-06-01T07:52:55.801Z</time>
      </trkpt>
      <trkpt lat="44.15892" lon="5.02334">
        <ele>404</ele>
        <time>2020-06-01T07:56:39.490Z</time>
      </trkpt>
      <trkpt lat="44.15891" lon="5.02435">
        <ele>409</ele>
        <time>2020-06-01T07:58:42.082Z</time>
      </trkpt>
      <trkpt lat="44.15886" lon="5.02442">
        <ele>410</ele>
        <time>2020-06-01T07:59:05.236Z</time>
      </trkpt>
      <trkpt lat="44.159" lon="5.0248">
        <ele>413</ele>
        <time>2020-06-01T08:00:11.384Z</time>
      </trkpt>
      <trkpt lat="44.15897" lon="5.02494">
        <ele>414</ele>
        <time>2020-06-01T08:00:33.484Z</time>
      </trkpt>
      <trkpt lat="44.159" lon="5.0248">
        <ele>415</ele>
        <time>2020-06-01T08:00:55.583Z</time>
      </trkpt>
      <trkpt lat="44.15886" lon="5.02442">
        <ele>419</ele>
        <time>2020-06-01T08:02:31.668Z</time>
      </trkpt>
      <trkpt lat="44.15874" lon="5.02439">
        <ele>421</ele>
        <time>2020-06-01T08:03:11.501Z</time>
      </trkpt>
      <trkpt lat="44.15856" lon="5.02443">
        <ele>424</ele>
        <time>2020-06-01T08:04:11.055Z</time>
      </trkpt>
      <trkpt lat="44.1583" lon="5.02422">
        <ele>429</ele>
        <time>2020-06-01T08:05:49.235Z</time>
      </trkpt>
      <trkpt lat="44.15814" lon="5.02439">
        <ele>434</ele>
        <time>2020-06-01T08:06:54.967Z</time>
      </trkpt>
      <trkpt lat="44.15797" lon="5.02442">
        <ele>439</ele>
        <time>2020-06-01T08:07:50.954Z</time>
      </trkpt>
      <trkpt lat="44.15764" lon="5.02401">
        <ele>452</ele>
        <time>2020-06-01T08:10:15.388Z</time>
      </trkpt>
      <trkpt lat="44.15733" lon="5.02389">
        <ele>463</ele>
        <time>2020-06-01T08:12:00.507Z</time>
      </trkpt>
      <trkpt lat="44.15725" lon="5.02405">
        <ele>469</ele>
        <time>2020-06-01T08:12:46.221Z</time>
      </trkpt>
      <trkpt lat="44.15726" lon="5.02436">
        <ele>477</ele>
        <time>2020-06-01T08:13:58.959Z</time>
      </trkpt>
      <trkpt lat="44.15719" lon="5.02497">
        <ele>493</ele>
        <time>2020-06-01T08:16:23.764Z</time>
      </trkpt>
      <trkpt lat="44.15667" lon="5.02627">
        <ele>518</ele>
        <time>2020-06-01T08:22:12.653Z</time>
      </trkpt>
      <trkpt lat="44.15635" lon="5.02675">
        <ele>522</ele>
        <time>2020-06-01T08:23:43.068Z</time>
      </trkpt>
      <trkpt lat="44.15608" lon="5.02748">
        <ele>524</ele>
        <time>2020-06-01T08:24:55.500Z</time>
      </trkpt>
      <trkpt lat="44.15601" lon="5.02779">
        <ele>524</ele>
        <time>2020-06-01T08:25:15.250Z</time>
      </trkpt>
      <trkpt lat="44.15594" lon="5.02753">
        <ele>524</ele>
        <time>2020-06-01T08:25:32.127Z</time>
      </trkpt>
      <trkpt lat="44.15572" lon="5.0275">
        <ele>524</ele>
        <time>2020-06-01T08:25:50.852Z</time>
      </trkpt>
      <trkpt lat="44.15572" lon="5.027">
        <ele>524</ele>
        <time>2020-06-01T08:26:21.238Z</time>
      </trkpt>
      <trkpt lat="44.15578" lon="5.02692">
        <ele>524</ele>
        <time>2020-06-01T08:26:28.272Z</time>
      </trkpt>
      <trkpt lat="44.15583" lon="5.02673">
        <ele>524</ele>
        <time>2020-06-01T08:26:40.571Z</time>
      </trkpt>
      <trkpt lat="44.15546" lon="5.02532">
        <ele>537</ele>
        <time>2020-06-01T08:31:37.760Z</time>
      </trkpt>
      <trkpt lat="44.15545" lon="5.02506">
        <ele>540</ele>
        <time>2020-06-01T08:32:38.795Z</time>
      </trkpt>
      <trkpt lat="44.15514" lon="5.0242">
        <ele>550</ele>
        <time>2020-06-01T08:36:24.402Z</time>
      </trkpt>
      <trkpt lat="44.15512" lon="5.02364">
        <ele>552</ele>
        <time>2020-06-01T08:37:23.875Z</time>
      </trkpt>
      <trkpt lat="44.15521" lon="5.02325">
        <ele>550</ele>
        <time>2020-06-01T08:37:29.708Z</time>
      </trkpt>
      <trkpt lat="44.155" lon="5.02219">
        <ele>537</ele>
        <time>2020-06-01T08:37:45.365Z</time>
      </trkpt>
      <trkpt lat="44.15484" lon="5.02165">
        <ele>530</ele>
        <time>2020-06-01T08:37:53.683Z</time>
      </trkpt>
      <trkpt lat="44.15474" lon="5.02149">
        <ele>527</ele>
        <time>2020-06-01T08:37:56.704Z</time>
      </trkpt>
      <trkpt lat="44.15472" lon="5.02131">
        <ele>526</ele>
        <time>2020-06-01T08:37:59.297Z</time>
      </trkpt>
      <trkpt lat="44.15459" lon="5.02113">
        <ele>524</ele>
        <time>2020-06-01T08:38:02.934Z</time>
      </trkpt>
      <trkpt lat="44.15447" lon="5.02082">
        <ele>523</ele>
        <time>2020-06-01T08:38:08.716Z</time>
      </trkpt>
      <trkpt lat="44.15438" lon="5.02025">
        <ele>523</ele>
        <time>2020-06-01T08:38:44.186Z</time>
      </trkpt>
      <trkpt lat="44.15458" lon="5.02011">
        <ele>523</ele>
        <time>2020-06-01T08:39:03.144Z</time>
      </trkpt>
      <trkpt lat="44.1547" lon="5.02018">
        <ele>523</ele>
        <time>2020-06-01T08:39:14.163Z</time>
      </trkpt>
      <trkpt lat="44.15477" lon="5.01991">
        <ele>524</ele>
        <time>2020-06-01T08:39:44.384Z</time>
      </trkpt>
      <trkpt lat="44.15487" lon="5.01897">
        <ele>526</ele>
        <time>2020-06-01T08:41:03.355Z</time>
      </trkpt>
      <trkpt lat="44.1548" lon="5.01865">
        <ele>526</ele>
        <time>2020-06-01T08:41:23.687Z</time>
      </trkpt>
      <trkpt lat="44.15465" lon="5.01855">
        <ele>526</ele>
        <time>2020-06-01T08:41:37.772Z</time>
      </trkpt>
      <trkpt lat="44.15463" lon="5.01841">
        <ele>527</ele>
        <time>2020-06-01T08:41:59.825Z</time>
      </trkpt>
      <trkpt lat="44.15465" lon="5.01739">
        <ele>530</ele>
        <time>2020-06-01T08:43:39.102Z</time>
      </trkpt>
      <trkpt lat="44.15475" lon="5.01688">
        <ele>533</ele>
        <time>2020-06-01T08:44:48.515Z</time>
      </trkpt>
      <trkpt lat="44.15476" lon="5.01613">
        <ele>538</ele>
        <time>2020-06-01T08:46:39.400Z</time>
      </trkpt>
      <trkpt lat="44.15467" lon="5.01543">
        <ele>539</ele>
        <time>2020-06-01T08:47:32.076Z</time>
      </trkpt>
      <trkpt lat="44.15471" lon="5.01507">
        <ele>537</ele>
        <time>2020-06-01T08:47:37.263Z</time>
      </trkpt>
      <trkpt lat="44.15482" lon="5.01475">
        <ele>533</ele>
        <time>2020-06-01T08:47:42.315Z</time>
      </trkpt>
      <trkpt lat="44.15535" lon="5.014">
        <ele>513</ele>
        <time>2020-06-01T08:47:57.303Z</time>
      </trkpt>
      <trkpt lat="44.15542" lon="5.01368">
        <ele>505</ele>
        <time>2020-06-01T08:48:02.066Z</time>
      </trkpt>
      <trkpt lat="44.15545" lon="5.01332">
        <ele>496</ele>
        <time>2020-06-01T08:48:07.226Z</time>
      </trkpt>
      <trkpt lat="44.15554" lon="5.01308">
        <ele>490</ele>
        <time>2020-06-01T08:48:11.082Z</time>
      </trkpt>
      <trkpt lat="44.1558" lon="5.01284">
        <ele>481</ele>
        <time>2020-06-01T08:48:17.270Z</time>
      </trkpt>
      <trkpt lat="44.15626" lon="5.01218">
        <ele>465</ele>
        <time>2020-06-01T08:48:30.371Z</time>
      </trkpt>
      <trkpt lat="44.15653" lon="5.01208">
        <ele>459</ele>
        <time>2020-06-01T08:48:35.915Z</time>
      </trkpt>
      <trkpt lat="44.15665" lon="5.01186">
        <ele>455</ele>
        <time>2020-06-01T08:48:39.850Z</time>
      </trkpt>
      <trkpt lat="44.15688" lon="5.01165">
        <ele>449</ele>
        <time>2020-06-01T08:48:45.306Z</time>
      </trkpt>
      <trkpt lat="44.15712" lon="5.01158">
        <ele>444</ele>
        <time>2020-06-01T08:48:50.172Z</time>
      </trkpt>
      <trkpt lat="44.15725" lon="5.01073">
        <ele>428</ele>
        <time>2020-06-01T08:49:02.545Z</time>
      </trkpt>
      <trkpt lat="44.15726" lon="5.01012">
        <ele>417</ele>
        <time>2020-06-01T08:49:11.232Z</time>
      </trkpt>
      <trkpt lat="44.15745" lon="5.00969">
        <ele>410</ele>
        <time>2020-06-01T08:49:18.422Z</time>
      </trkpt>
      <trkpt lat="44.1578" lon="5.00941">
        <ele>403</ele>
        <time>2020-06-01T08:49:26.430Z</time>
      </trkpt>
      <trkpt lat="44.15796" lon="5.00898">
        <ele>398</ele>
        <time>2020-06-01T08:49:33.327Z</time>
      </trkpt>
      <trkpt lat="44.15808" lon="5.0088">
        <ele>396</ele>
        <time>2020-06-01T08:49:36.825Z</time>
      </trkpt>
      <trkpt lat="44.15822" lon="5.0088">
        <ele>395</ele>
        <time>2020-06-01T08:49:39.603Z</time>
      </trkpt>
      <trkpt lat="44.15825" lon="5.00873">
        <ele>394</ele>
        <time>2020-06-01T08:49:40.764Z</time>
      </trkpt>
      <trkpt lat="44.15867" lon="5.00877">
        <ele>391</ele>
        <time>2020-06-01T08:49:49.118Z</time>
      </trkpt>
      <trkpt lat="44.15894" lon="5.00863">
        <ele>388</ele>
        <time>2020-06-01T08:49:54.835Z</time>
      </trkpt>
      <trkpt lat="44.15917" lon="5.0088">
        <ele>386</ele>
        <time>2020-06-01T08:50:00.001Z</time>
      </trkpt>
      <trkpt lat="44.15943" lon="5.00933">
        <ele>382</ele>
        <time>2020-06-01T08:50:09.142Z</time>
      </trkpt>
      <trkpt lat="44.15947" lon="5.00926">
        <ele>381</ele>
        <time>2020-06-01T08:50:10.416Z</time>
      </trkpt>
      <trkpt lat="44.15925" lon="5.00862">
        <ele>374</ele>
        <time>2020-06-01T08:50:20.520Z</time>
      </trkpt>
      <trkpt lat="44.15921" lon="5.00832">
        <ele>370</ele>
        <time>2020-06-01T08:50:24.864Z</time>
      </trkpt>
      <trkpt lat="44.1593" lon="5.00782">
        <ele>362</ele>
        <time>2020-06-01T08:50:32.203Z</time>
      </trkpt>
      <trkpt lat="44.15934" lon="5.00711">
        <ele>348</ele>
        <time>2020-06-01T08:50:42.342Z</time>
      </trkpt>
      <trkpt lat="44.15945" lon="5.00665">
        <ele>338</ele>
        <time>2020-06-01T08:50:49.245Z</time>
      </trkpt>
      <trkpt lat="44.15946" lon="5.00575">
        <ele>321</ele>
        <time>2020-06-01T08:51:02.060Z</time>
      </trkpt>
      <trkpt lat="44.15936" lon="5.00465">
        <ele>308</ele>
        <time>2020-06-01T08:51:17.845Z</time>
      </trkpt>
      <trkpt lat="44.15961" lon="5.00419">
        <ele>304</ele>
        <time>2020-06-01T08:51:26.061Z</time>
      </trkpt>
      <trkpt lat="44.15984" lon="5.00367">
        <ele>299</ele>
        <time>2020-06-01T08:51:34.758Z</time>
      </trkpt>
      <trkpt lat="44.16023" lon="5.00329">
        <ele>293</ele>
        <time>2020-06-01T08:51:44.201Z</time>
      </trkpt>
      <trkpt lat="44.16029" lon="5.00311">
        <ele>291</ele>
        <time>2020-06-01T08:51:47.027Z</time>
      </trkpt>
      <trkpt lat="44.16061" lon="5.00329">
        <ele>286</ele>
        <time>2020-06-01T08:51:53.874Z</time>
      </trkpt>
      <trkpt lat="44.16104" lon="5.00393">
        <ele>275</ele>
        <time>2020-06-01T08:52:06.358Z</time>
      </trkpt>
      <trkpt lat="44.16168" lon="5.00438">
        <ele>265</ele>
        <time>2020-06-01T08:52:20.582Z</time>
      </trkpt>
      <trkpt lat="44.16204" lon="5.00477">
        <ele>261</ele>
        <time>2020-06-01T08:52:29.630Z</time>
      </trkpt>
      <trkpt lat="44.16218" lon="5.00481">
        <ele>260</ele>
        <time>2020-06-01T08:52:32.466Z</time>
      </trkpt>
      <trkpt lat="44.16222" lon="5.00487">
        <ele>260</ele>
        <time>2020-06-01T08:52:37.444Z</time>
      </trkpt>
      <trkpt lat="44.16275" lon="5.0048">
        <ele>260</ele>
        <time>2020-06-01T08:53:22.539Z</time>
      </trkpt>
      <trkpt lat="44.16294" lon="5.00468">
        <ele>261</ele>
        <time>2020-06-01T08:53:53.024Z</time>
      </trkpt>
      <trkpt lat="44.16312" lon="5.00469">
        <ele>263</ele>
        <time>2020-06-01T08:54:37.481Z</time>
      </trkpt>
      <trkpt lat="44.16307" lon="5.00564">
        <ele>270</ele>
        <time>2020-06-01T08:57:11.670Z</time>
      </trkpt>
      <trkpt lat="44.16314" lon="5.00567">
        <ele>271</ele>
        <time>2020-06-01T08:57:35.598Z</time>
      </trkpt>
      <trkpt lat="44.16328" lon="5.00543">
        <ele>272</ele>
        <time>2020-06-01T08:58:07.435Z</time>
      </trkpt>
      <trkpt lat="44.16343" lon="5.00543">
        <ele>271</ele>
        <time>2020-06-01T08:58:10.162Z</time>
      </trkpt>
      <trkpt lat="44.1635" lon="5.00536">
        <ele>271</ele>
        <time>2020-06-01T08:58:17.460Z</time>
      </trkpt>
      <trkpt lat="44.16381" lon="5.00555">
        <ele>267</ele>
        <time>2020-06-01T08:58:24.180Z</time>
      </trkpt>
    </trkseg>
  </trk>
</gpx>